sensor_id;sensor_type;location;lat;lon;timestamp;P1;durP1;ratioP1;P2;durP2;ratioP2
55758;SDS011;41678;52.126;20.664;2022-07-26T00:04:13;8.73;;;2.80;;
55758;SDS011;41678;52.126;20.664;2022-07-26T00:09:32;6.05;;;2.88;;
55758;SDS011;41678;52.126;20.664;2022-07-26T00:14:53;6.03;;;2.83;;
55758;SDS011;41678;52.126;20.664;2022-07-26T00:20:12;6.55;;;2.97;;
55758;SDS011;41678;52.126;20.664;2022-07-26T00:25:32;6.35;;;3.17;;
55758;SDS011;41678;52.126;20.664;2022-07-26T00:30:52;7.18;;;3.35;;
55758;SDS011;41678;52.126;20.664;2022-07-26T00:36:12;9.52;;;3.60;;
55758;SDS011;41678;52.126;20.664;2022-07-26T00:41:32;7.78;;;3.67;;
55758;SDS011;41678;52.126;20.664;2022-07-26T00:46:52;6.25;;;2.92;;
55758;SDS011;41678;52.126;20.664;2022-07-26T00:52:11;8.00;;;3.58;;
55758;SDS011;41678;52.126;20.664;2022-07-26T00:57:31;7.70;;;3.13;;
55758;SDS011;41678;52.126;20.664;2022-07-26T01:02:51;6.95;;;3.08;;
55758;SDS011;41678;52.126;20.664;2022-07-26T01:08:11;6.73;;;3.03;;
55758;SDS011;41678;52.126;20.664;2022-07-26T01:13:31;7.18;;;3.40;;
55758;SDS011;41678;52.126;20.664;2022-07-26T01:18:52;8.73;;;3.28;;
55758;SDS011;41678;52.126;20.664;2022-07-26T01:24:11;6.57;;;3.33;;
55758;SDS011;41678;52.126;20.664;2022-07-26T01:29:31;7.97;;;3.30;;
55758;SDS011;41678;52.126;20.664;2022-07-26T01:34:50;6.63;;;3.40;;
55758;SDS011;41678;52.126;20.664;2022-07-26T01:40:10;6.57;;;3.35;;
55758;SDS011;41678;52.126;20.664;2022-07-26T01:45:31;8.43;;;3.33;;
55758;SDS011;41678;52.126;20.664;2022-07-26T01:50:51;7.00;;;3.20;;
55758;SDS011;41678;52.126;20.664;2022-07-26T01:56:11;6.25;;;3.20;;
55758;SDS011;41678;52.126;20.664;2022-07-26T02:01:31;6.35;;;3.33;;
55758;SDS011;41678;52.126;20.664;2022-07-26T02:06:51;7.85;;;3.47;;
55758;SDS011;41678;52.126;20.664;2022-07-26T02:12:11;9.85;;;3.38;;
55758;SDS011;41678;52.126;20.664;2022-07-26T02:17:30;6.53;;;3.60;;
55758;SDS011;41678;52.126;20.664;2022-07-26T02:22:50;7.53;;;3.42;;
55758;SDS011;41678;52.126;20.664;2022-07-26T02:28:10;7.95;;;3.53;;
55758;SDS011;41678;52.126;20.664;2022-07-26T02:33:30;11.73;;;3.20;;
55758;SDS011;41678;52.126;20.664;2022-07-26T02:38:49;10.25;;;4.10;;
55758;SDS011;41678;52.126;20.664;2022-07-26T02:44:09;6.93;;;3.25;;
55758;SDS011;41678;52.126;20.664;2022-07-26T02:49:29;6.53;;;3.33;;
55758;SDS011;41678;52.126;20.664;2022-07-26T02:54:50;11.05;;;3.72;;
55758;SDS011;41678;52.126;20.664;2022-07-26T03:00:14;12.00;;;3.65;;
55758;SDS011;41678;52.126;20.664;2022-07-26T03:05:50;8.55;;;3.50;;
55758;SDS011;41678;52.126;20.664;2022-07-26T03:11:10;9.07;;;3.65;;
55758;SDS011;41678;52.126;20.664;2022-07-26T03:16:30;7.88;;;3.58;;
55758;SDS011;41678;52.126;20.664;2022-07-26T03:21:50;9.43;;;3.50;;
55758;SDS011;41678;52.126;20.664;2022-07-26T03:27:10;10.55;;;3.80;;
55758;SDS011;41678;52.126;20.664;2022-07-26T03:32:29;11.15;;;3.67;;
55758;SDS011;41678;52.126;20.664;2022-07-26T03:37:49;13.27;;;3.35;;
55758;SDS011;41678;52.126;20.664;2022-07-26T03:43:09;8.90;;;3.70;;
55758;SDS011;41678;52.126;20.664;2022-07-26T03:48:29;8.10;;;4.00;;
55758;SDS011;41678;52.126;20.664;2022-07-26T03:53:49;10.35;;;3.65;;
55758;SDS011;41678;52.126;20.664;2022-07-26T03:59:09;7.53;;;3.80;;
55758;SDS011;41678;52.126;20.664;2022-07-26T04:04:29;12.93;;;4.20;;
55758;SDS011;41678;52.126;20.664;2022-07-26T04:09:49;6.65;;;3.65;;
55758;SDS011;41678;52.126;20.664;2022-07-26T04:15:09;7.55;;;3.70;;
55758;SDS011;41678;52.126;20.664;2022-07-26T04:20:28;10.27;;;3.72;;
55758;SDS011;41678;52.126;20.664;2022-07-26T04:25:49;8.98;;;3.45;;
55758;SDS011;41678;52.126;20.664;2022-07-26T04:31:08;9.23;;;4.05;;
55758;SDS011;41678;52.126;20.664;2022-07-26T04:36:28;11.13;;;4.07;;
55758;SDS011;41678;52.126;20.664;2022-07-26T04:41:48;7.90;;;4.10;;
55758;SDS011;41678;52.126;20.664;2022-07-26T04:47:09;18.70;;;4.47;;
55758;SDS011;41678;52.126;20.664;2022-07-26T04:52:28;8.65;;;4.18;;
55758;SDS011;41678;52.126;20.664;2022-07-26T04:57:48;8.13;;;4.43;;
55758;SDS011;41678;52.126;20.664;2022-07-26T05:03:08;8.02;;;4.15;;
55758;SDS011;41678;52.126;20.664;2022-07-26T05:08:28;9.27;;;4.15;;
55758;SDS011;41678;52.126;20.664;2022-07-26T05:13:47;9.05;;;3.95;;
55758;SDS011;41678;52.126;20.664;2022-07-26T05:19:06;10.77;;;4.10;;
55758;SDS011;41678;52.126;20.664;2022-07-26T05:24:26;11.77;;;3.95;;
55758;SDS011;41678;52.126;20.664;2022-07-26T05:29:46;8.90;;;4.32;;
55758;SDS011;41678;52.126;20.664;2022-07-26T05:35:06;10.25;;;4.43;;
55758;SDS011;41678;52.126;20.664;2022-07-26T05:40:27;8.43;;;4.60;;
55758;SDS011;41678;52.126;20.664;2022-07-26T05:45:47;12.70;;;4.75;;
55758;SDS011;41678;52.126;20.664;2022-07-26T05:51:06;9.38;;;4.68;;
55758;SDS011;41678;52.126;20.664;2022-07-26T05:56:27;7.97;;;4.40;;
55758;SDS011;41678;52.126;20.664;2022-07-26T06:01:47;8.48;;;4.50;;
55758;SDS011;41678;52.126;20.664;2022-07-26T06:07:07;9.52;;;3.72;;
55758;SDS011;41678;52.126;20.664;2022-07-26T06:12:26;11.50;;;4.22;;
55758;SDS011;41678;52.126;20.664;2022-07-26T06:17:46;9.20;;;3.85;;
55758;SDS011;41678;52.126;20.664;2022-07-26T06:23:06;10.20;;;4.30;;
55758;SDS011;41678;52.126;20.664;2022-07-26T06:28:26;9.48;;;4.15;;
55758;SDS011;41678;52.126;20.664;2022-07-26T06:33:46;9.52;;;3.60;;
55758;SDS011;41678;52.126;20.664;2022-07-26T06:39:06;8.02;;;3.95;;
55758;SDS011;41678;52.126;20.664;2022-07-26T06:44:26;8.57;;;3.72;;
55758;SDS011;41678;52.126;20.664;2022-07-26T06:49:46;8.40;;;4.00;;
55758;SDS011;41678;52.126;20.664;2022-07-26T06:55:05;17.77;;;4.25;;
55758;SDS011;41678;52.126;20.664;2022-07-26T07:00:27;10.18;;;3.53;;
55758;SDS011;41678;52.126;20.664;2022-07-26T07:05:46;10.77;;;3.33;;
55758;SDS011;41678;52.126;20.664;2022-07-26T07:11:06;12.45;;;4.43;;
55758;SDS011;41678;52.126;20.664;2022-07-26T07:16:26;9.73;;;3.70;;
55758;SDS011;41678;52.126;20.664;2022-07-26T07:21:45;7.40;;;3.65;;
55758;SDS011;41678;52.126;20.664;2022-07-26T07:27:05;8.98;;;3.15;;
55758;SDS011;41678;52.126;20.664;2022-07-26T07:32:25;7.03;;;3.20;;
55758;SDS011;41678;52.126;20.664;2022-07-26T07:37:44;7.93;;;3.83;;
55758;SDS011;41678;52.126;20.664;2022-07-26T07:43:04;9.70;;;3.60;;
55758;SDS011;41678;52.126;20.664;2022-07-26T07:48:24;12.00;;;3.83;;
55758;SDS011;41678;52.126;20.664;2022-07-26T07:53:44;6.20;;;2.95;;
55758;SDS011;41678;52.126;20.664;2022-07-26T07:59:04;10.87;;;3.67;;
55758;SDS011;41678;52.126;20.664;2022-07-26T08:04:24;12.05;;;3.50;;
55758;SDS011;41678;52.126;20.664;2022-07-26T08:09:44;7.37;;;3.63;;
55758;SDS011;41678;52.126;20.664;2022-07-26T08:15:04;9.68;;;3.85;;
55758;SDS011;41678;52.126;20.664;2022-07-26T08:20:24;8.40;;;3.10;;
55758;SDS011;41678;52.126;20.664;2022-07-26T08:25:44;7.93;;;3.63;;
55758;SDS011;41678;52.126;20.664;2022-07-26T08:31:04;9.18;;;3.72;;
55758;SDS011;41678;52.126;20.664;2022-07-26T08:36:24;7.30;;;3.40;;
55758;SDS011;41678;52.126;20.664;2022-07-26T08:41:44;11.77;;;3.97;;
55758;SDS011;41678;52.126;20.664;2022-07-26T08:47:04;8.00;;;3.53;;
55758;SDS011;41678;52.126;20.664;2022-07-26T08:58:27;7.35;;;3.72;;
55758;SDS011;41678;52.126;20.664;2022-07-26T09:03:47;8.40;;;3.75;;
55758;SDS011;41678;52.126;20.664;2022-07-26T09:09:10;6.55;;;3.17;;
55758;SDS011;41678;52.126;20.664;2022-07-26T09:14:35;9.82;;;3.47;;
55758;SDS011;41678;52.126;20.664;2022-07-26T09:30:51;8.02;;;3.60;;
55758;SDS011;41678;52.126;20.664;2022-07-26T09:36:12;6.75;;;3.60;;
55758;SDS011;41678;52.126;20.664;2022-07-26T09:41:35;7.38;;;3.63;;
55758;SDS011;41678;52.126;20.664;2022-07-26T09:46:57;10.93;;;4.32;;
55758;SDS011;41678;52.126;20.664;2022-07-26T09:52:18;10.68;;;4.07;;
55758;SDS011;41678;52.126;20.664;2022-07-26T09:57:39;7.78;;;3.80;;
55758;SDS011;41678;52.126;20.664;2022-07-26T10:02:59;6.88;;;3.83;;
55758;SDS011;41678;52.126;20.664;2022-07-26T10:08:20;16.65;;;4.13;;
55758;SDS011;41678;52.126;20.664;2022-07-26T10:13:40;11.63;;;4.67;;
55758;SDS011;41678;52.126;20.664;2022-07-26T10:19:00;10.10;;;4.78;;
55758;SDS011;41678;52.126;20.664;2022-07-26T10:24:25;14.02;;;4.00;;
55758;SDS011;41678;52.126;20.664;2022-07-26T10:29:45;16.35;;;4.10;;
55758;SDS011;41678;52.126;20.664;2022-07-26T10:40:59;8.88;;;3.92;;
55758;SDS011;41678;52.126;20.664;2022-07-26T10:46:24;9.27;;;4.03;;
55758;SDS011;41678;52.126;20.664;2022-07-26T10:51:47;11.70;;;4.43;;
55758;SDS011;41678;52.126;20.664;2022-07-26T11:02:46;8.93;;;3.90;;
55758;SDS011;41678;52.126;20.664;2022-07-26T11:08:08;9.68;;;4.57;;
55758;SDS011;41678;52.126;20.664;2022-07-26T11:13:30;8.77;;;4.45;;
55758;SDS011;41678;52.126;20.664;2022-07-26T11:18:51;11.80;;;4.93;;
55758;SDS011;41678;52.126;20.664;2022-07-26T11:24:11;10.73;;;5.40;;
55758;SDS011;41678;52.126;20.664;2022-07-26T11:29:31;9.57;;;5.15;;
55758;SDS011;41678;52.126;20.664;2022-07-26T11:34:59;13.30;;;5.60;;
55758;SDS011;41678;52.126;20.664;2022-07-26T11:46:02;9.82;;;5.55;;
55758;SDS011;41678;52.126;20.664;2022-07-26T11:51:22;15.13;;;5.68;;
55758;SDS011;41678;52.126;20.664;2022-07-26T12:02:10;11.98;;;6.20;;
55758;SDS011;41678;52.126;20.664;2022-07-26T12:07:30;12.02;;;6.78;;
55758;SDS011;41678;52.126;20.664;2022-07-26T12:12:59;17.13;;;6.82;;
55758;SDS011;41678;52.126;20.664;2022-07-26T12:23:45;13.20;;;7.78;;
55758;SDS011;41678;52.126;20.664;2022-07-26T12:29:06;14.35;;;7.95;;
55758;SDS011;41678;52.126;20.664;2022-07-26T12:40:38;14.65;;;7.63;;
55758;SDS011;41678;52.126;20.664;2022-07-26T12:45:59;13.60;;;7.43;;
55758;SDS011;41678;52.126;20.664;2022-07-26T12:51:21;14.73;;;8.15;;
55758;SDS011;41678;52.126;20.664;2022-07-26T12:56:41;12.73;;;7.78;;
55758;SDS011;41678;52.126;20.664;2022-07-26T13:02:01;13.90;;;8.18;;
55758;SDS011;41678;52.126;20.664;2022-07-26T13:07:21;12.77;;;7.43;;
55758;SDS011;41678;52.126;20.664;2022-07-26T13:12:41;10.88;;;6.57;;
55758;SDS011;41678;52.126;20.664;2022-07-26T13:18:01;10.63;;;6.00;;
55758;SDS011;41678;52.126;20.664;2022-07-26T13:23:21;10.95;;;6.50;;
55758;SDS011;41678;52.126;20.664;2022-07-26T13:28:41;9.77;;;5.60;;
55758;SDS011;41678;52.126;20.664;2022-07-26T13:34:01;11.88;;;5.85;;
55758;SDS011;41678;52.126;20.664;2022-07-26T13:39:21;12.15;;;5.65;;
55758;SDS011;41678;52.126;20.664;2022-07-26T13:44:40;11.45;;;6.55;;
55758;SDS011;41678;52.126;20.664;2022-07-26T13:50:00;17.50;;;7.43;;
55758;SDS011;41678;52.126;20.664;2022-07-26T13:55:20;15.63;;;6.75;;
55758;SDS011;41678;52.126;20.664;2022-07-26T14:00:41;16.38;;;6.63;;
55758;SDS011;41678;52.126;20.664;2022-07-26T14:06:01;16.73;;;6.53;;
55758;SDS011;41678;52.126;20.664;2022-07-26T14:11:21;15.95;;;7.07;;
55758;SDS011;41678;52.126;20.664;2022-07-26T14:16:41;15.68;;;6.40;;
55758;SDS011;41678;52.126;20.664;2022-07-26T15:00:49;9.30;;;4.05;;
55758;SDS011;41678;52.126;20.664;2022-07-26T15:06:10;9.27;;;3.78;;
55758;SDS011;41678;52.126;20.664;2022-07-26T15:11:29;8.77;;;3.30;;
55758;SDS011;41678;52.126;20.664;2022-07-26T15:16:49;6.68;;;3.13;;
55758;SDS011;41678;52.126;20.664;2022-07-26T15:22:09;8.80;;;3.60;;
55758;SDS011;41678;52.126;20.664;2022-07-26T15:27:29;8.65;;;3.40;;
55758;SDS011;41678;52.126;20.664;2022-07-26T15:32:49;8.05;;;3.20;;
55758;SDS011;41678;52.126;20.664;2022-07-26T15:38:09;10.13;;;3.80;;
55758;SDS011;41678;52.126;20.664;2022-07-26T15:43:28;9.77;;;3.28;;
55758;SDS011;41678;52.126;20.664;2022-07-26T15:48:48;9.75;;;2.97;;
55758;SDS011;41678;52.126;20.664;2022-07-26T15:54:11;7.70;;;3.15;;
55758;SDS011;41678;52.126;20.664;2022-07-26T15:59:32;9.00;;;2.88;;
55758;SDS011;41678;52.126;20.664;2022-07-26T16:04:52;8.30;;;2.70;;
55758;SDS011;41678;52.126;20.664;2022-07-26T16:10:12;7.75;;;2.60;;
55758;SDS011;41678;52.126;20.664;2022-07-26T16:15:33;8.38;;;2.92;;
55758;SDS011;41678;52.126;20.664;2022-07-26T16:20:53;12.88;;;4.18;;
55758;SDS011;41678;52.126;20.664;2022-07-26T16:26:13;9.52;;;2.80;;
55758;SDS011;41678;52.126;20.664;2022-07-26T16:31:32;12.32;;;2.78;;
55758;SDS011;41678;52.126;20.664;2022-07-26T16:36:52;6.95;;;2.67;;
55758;SDS011;41678;52.126;20.664;2022-07-26T16:42:11;8.05;;;2.65;;
55758;SDS011;41678;52.126;20.664;2022-07-26T16:47:31;10.13;;;3.30;;
55758;SDS011;41678;52.126;20.664;2022-07-26T16:52:51;8.63;;;2.67;;
55758;SDS011;41678;52.126;20.664;2022-07-26T16:58:10;8.23;;;2.60;;
55758;SDS011;41678;52.126;20.664;2022-07-26T17:03:30;7.45;;;2.47;;
55758;SDS011;41678;52.126;20.664;2022-07-26T17:08:50;10.52;;;3.05;;
55758;SDS011;41678;52.126;20.664;2022-07-26T17:14:10;8.18;;;2.80;;
55758;SDS011;41678;52.126;20.664;2022-07-26T17:19:30;5.68;;;2.38;;
55758;SDS011;41678;52.126;20.664;2022-07-26T17:24:49;11.10;;;2.88;;
55758;SDS011;41678;52.126;20.664;2022-07-26T17:30:09;8.68;;;2.70;;
55758;SDS011;41678;52.126;20.664;2022-07-26T17:35:30;15.00;;;3.38;;
55758;SDS011;41678;52.126;20.664;2022-07-26T17:40:50;11.27;;;3.13;;
55758;SDS011;41678;52.126;20.664;2022-07-26T17:46:10;7.95;;;3.08;;
55758;SDS011;41678;52.126;20.664;2022-07-26T17:51:30;10.68;;;3.72;;
55758;SDS011;41678;52.126;20.664;2022-07-26T17:56:49;16.85;;;3.55;;
55758;SDS011;41678;52.126;20.664;2022-07-26T18:02:11;10.27;;;3.20;;
55758;SDS011;41678;52.126;20.664;2022-07-26T18:07:31;18.48;;;3.95;;
55758;SDS011;41678;52.126;20.664;2022-07-26T18:12:50;10.13;;;3.58;;
55758;SDS011;41678;52.126;20.664;2022-07-26T18:18:11;11.98;;;3.47;;
55758;SDS011;41678;52.126;20.664;2022-07-26T18:23:30;10.18;;;3.75;;
55758;SDS011;41678;52.126;20.664;2022-07-26T18:28:50;8.68;;;3.28;;
55758;SDS011;41678;52.126;20.664;2022-07-26T18:34:10;9.02;;;3.25;;
55758;SDS011;41678;52.126;20.664;2022-07-26T18:39:30;7.78;;;3.15;;
55758;SDS011;41678;52.126;20.664;2022-07-26T18:44:50;10.18;;;3.65;;
55758;SDS011;41678;52.126;20.664;2022-07-26T18:50:10;9.88;;;3.75;;
55758;SDS011;41678;52.126;20.664;2022-07-26T18:55:30;10.50;;;4.00;;
55758;SDS011;41678;52.126;20.664;2022-07-26T19:00:50;11.65;;;3.65;;
55758;SDS011;41678;52.126;20.664;2022-07-26T19:06:10;11.63;;;5.03;;
55758;SDS011;41678;52.126;20.664;2022-07-26T19:11:31;14.52;;;4.38;;
55758;SDS011;41678;52.126;20.664;2022-07-26T19:16:51;11.63;;;3.95;;
55758;SDS011;41678;52.126;20.664;2022-07-26T19:22:11;16.42;;;4.90;;
55758;SDS011;41678;52.126;20.664;2022-07-26T19:27:36;9.75;;;4.53;;
55758;SDS011;41678;52.126;20.664;2022-07-26T19:32:56;10.55;;;5.18;;
55758;SDS011;41678;52.126;20.664;2022-07-26T19:38:16;16.60;;;6.45;;
55758;SDS011;41678;52.126;20.664;2022-07-26T19:43:36;15.10;;;5.38;;
55758;SDS011;41678;52.126;20.664;2022-07-26T19:48:56;15.65;;;5.35;;
55758;SDS011;41678;52.126;20.664;2022-07-26T19:54:16;15.60;;;5.53;;
55758;SDS011;41678;52.126;20.664;2022-07-26T19:59:36;10.48;;;5.05;;
55758;SDS011;41678;52.126;20.664;2022-07-26T20:04:55;13.57;;;5.18;;
55758;SDS011;41678;52.126;20.664;2022-07-26T20:10:15;13.25;;;5.38;;
55758;SDS011;41678;52.126;20.664;2022-07-26T20:15:37;12.02;;;6.05;;
55758;SDS011;41678;52.126;20.664;2022-07-26T20:20:57;13.63;;;5.95;;
55758;SDS011;41678;52.126;20.664;2022-07-26T20:26:17;12.82;;;5.80;;
55758;SDS011;41678;52.126;20.664;2022-07-26T20:31:37;11.60;;;5.97;;
55758;SDS011;41678;52.126;20.664;2022-07-26T20:36:57;12.73;;;6.00;;
55758;SDS011;41678;52.126;20.664;2022-07-26T20:42:17;10.70;;;6.00;;
55758;SDS011;41678;52.126;20.664;2022-07-26T20:47:36;11.98;;;6.05;;
55758;SDS011;41678;52.126;20.664;2022-07-26T20:52:58;17.17;;;7.25;;
55758;SDS011;41678;52.126;20.664;2022-07-26T20:58:28;12.32;;;6.13;;
55758;SDS011;41678;52.126;20.664;2022-07-26T21:03:49;12.27;;;6.07;;
55758;SDS011;41678;52.126;20.664;2022-07-26T21:09:09;15.13;;;6.13;;
55758;SDS011;41678;52.126;20.664;2022-07-26T21:14:29;13.05;;;5.80;;
55758;SDS011;41678;52.126;20.664;2022-07-26T21:19:48;12.70;;;6.28;;
55758;SDS011;41678;52.126;20.664;2022-07-26T21:25:09;11.13;;;5.68;;
55758;SDS011;41678;52.126;20.664;2022-07-26T21:30:29;14.40;;;6.60;;
55758;SDS011;41678;52.126;20.664;2022-07-26T21:35:49;13.35;;;6.40;;
55758;SDS011;41678;52.126;20.664;2022-07-26T21:41:08;15.45;;;6.43;;
55758;SDS011;41678;52.126;20.664;2022-07-26T21:46:29;13.57;;;5.70;;
55758;SDS011;41678;52.126;20.664;2022-07-26T21:51:48;14.30;;;5.90;;
55758;SDS011;41678;52.126;20.664;2022-07-26T21:57:08;12.25;;;5.75;;
55758;SDS011;41678;52.126;20.664;2022-07-26T22:02:28;17.52;;;6.35;;
55758;SDS011;41678;52.126;20.664;2022-07-26T22:07:47;15.63;;;6.50;;
55758;SDS011;41678;52.126;20.664;2022-07-26T22:13:06;15.05;;;6.13;;
55758;SDS011;41678;52.126;20.664;2022-07-26T22:18:26;14.00;;;6.03;;
55758;SDS011;41678;52.126;20.664;2022-07-26T22:23:46;13.35;;;6.35;;
55758;SDS011;41678;52.126;20.664;2022-07-26T22:29:05;14.55;;;5.90;;
55758;SDS011;41678;52.126;20.664;2022-07-26T22:34:26;10.48;;;5.75;;
55758;SDS011;41678;52.126;20.664;2022-07-26T22:39:46;14.63;;;5.28;;
55758;SDS011;41678;52.126;20.664;2022-07-26T22:45:06;13.90;;;6.43;;
55758;SDS011;41678;52.126;20.664;2022-07-26T22:50:26;10.63;;;5.47;;
55758;SDS011;41678;52.126;20.664;2022-07-26T22:55:46;15.45;;;7.10;;
55758;SDS011;41678;52.126;20.664;2022-07-26T23:01:06;16.38;;;6.38;;
55758;SDS011;41678;52.126;20.664;2022-07-26T23:06:26;14.85;;;5.80;;
55758;SDS011;41678;52.126;20.664;2022-07-26T23:11:46;11.20;;;6.03;;
55758;SDS011;41678;52.126;20.664;2022-07-26T23:17:06;10.45;;;5.97;;
55758;SDS011;41678;52.126;20.664;2022-07-26T23:22:26;14.30;;;6.47;;
55758;SDS011;41678;52.126;20.664;2022-07-26T23:27:45;11.38;;;6.05;;
55758;SDS011;41678;52.126;20.664;2022-07-26T23:33:06;11.32;;;5.28;;
55758;SDS011;41678;52.126;20.664;2022-07-26T23:38:26;13.52;;;6.13;;
55758;SDS011;41678;52.126;20.664;2022-07-26T23:43:46;11.02;;;5.60;;
55758;SDS011;41678;52.126;20.664;2022-07-26T23:49:06;18.48;;;5.55;;
55758;SDS011;41678;52.126;20.664;2022-07-26T23:54:26;22.85;;;6.32;;
55758;SDS011;41678;52.126;20.664;2022-07-26T23:59:46;15.32;;;5.75;;
